Time;durP1;ratioP1;P1;durP2;ratioP2;P2;SDS_P1;SDS_P2;PMS_P1;PMS_P2;Temp;Humidity;BMP_temperature;BMP_pressure;BME280_temperature;BME280_humidity;BME280_pressure;Samples;Min_cycle;Max_cycle;Signal;HPM_P1;HPM_P2
2022/08/12 00:44:27;;;;;;;6.07;1.40;;;18.60;71.30;;;;;;5115086;28;20059;-81
2022/08/12 00:46:57;;;;;;;1.92;1.00;;;18.60;71.70;;;;;;5114535;28;20381;-82
2022/08/12 00:49:24;;;;;;;2.55;1.80;;;18.50;71.90;;;;;;5130601;27;20019;-81
2022/08/12 00:52:08;;;;;;;4.43;1.70;;;18.50;71.90;;;;;;5120487;28;20094;-81
2022/08/12 00:54:38;;;;;;;2.40;1.50;;;18.50;72.00;;;;;;5118104;28;20024;-81
2022/08/12 00:57:08;;;;;;;2.42;1.50;;;18.40;72.50;;;;;;5125305;28;20032;-80
2022/08/12 00:59:35;;;;;;;4.72;1.67;;;18.40;72.60;;;;;;5119530;28;20027;-81
2022/08/12 01:02:04;;;;;;;2.20;1.52;;;18.30;72.80;;;;;;5114043;28;20046;-81
2022/08/12 01:12:44;;;;;;;6.85;1.58;;;18.10;73.90;;;;;;5113915;28;20569;-81
2022/08/12 01:15:12;;;;;;;4.15;1.60;;;18.10;74.00;;;;;;5113849;28;20059;-81
2022/08/12 01:17:41;;;;;;;6.40;1.67;;;18.10;74.10;;;;;;5113038;28;20373;-82
2022/08/12 01:20:17;;;;;;;3.85;1.65;;;18.10;74.20;;;;;;5112742;28;20028;-81
2022/08/12 01:23:16;;;;;;;3.65;1.63;;;18.10;74.30;;;;;;5111864;28;20516;-83
2022/08/12 01:25:44;;;;;;;5.25;1.90;;;18.00;74.30;;;;;;5113385;28;20106;-82
2022/08/12 01:28:12;;;;;;;3.83;1.70;;;18.00;74.60;;;;;;5112620;28;20461;-81
2022/08/12 01:30:41;;;;;;;5.13;1.83;;;18.00;74.90;;;;;;5113941;28;20028;-82
2022/08/12 01:33:14;;;;;;;4.43;1.92;;;18.00;75.00;;;;;;5114361;28;20112;-82
2022/08/12 01:35:47;;;;;;;1.95;1.38;;;18.00;75.20;;;;;;5114977;28;20061;-82
2022/08/12 01:38:18;;;;;;;2.35;1.50;;;18.00;75.40;;;;;;5120218;27;20023;-81
2022/08/12 01:40:46;;;;;;;4.35;1.40;;;17.90;76.10;;;;;;5113121;28;20024;-81
2022/08/12 01:43:20;;;;;;;2.20;1.35;;;17.90;75.80;;;;;;5113472;28;20545;-81
2022/08/12 01:46:13;;;;;;;5.00;1.65;;;17.90;76.30;;;;;;5111037;28;20081;-81
2022/08/12 01:49:06;;;;;;;3.75;1.45;;;17.90;76.50;;;;;;5113158;28;20023;-81
2022/08/12 01:51:42;;;;;;;3.40;1.60;;;17.80;76.70;;;;;;5111423;28;20401;-80
2022/08/12 01:54:12;;;;;;;3.55;1.55;;;17.80;77.10;;;;;;5112998;27;20123;-82
2022/08/12 01:57:40;;;;;;;4.72;1.30;;;17.70;77.10;;;;;;5112440;27;20470;-82
2022/08/12 02:00:11;;;;;;;2.00;1.20;;;17.70;77.20;;;;;;5082090;28;20422;-81
2022/08/12 02:02:46;;;;;;;3.75;1.60;;;17.70;77.80;;;;;;5112639;28;20036;-80
2022/08/12 02:11:41;;;;;;;1.85;0.90;;;17.50;79.40;;;;;;5112862;28;20096;-83
2022/08/12 02:14:44;;;;;;;2.67;1.75;;;17.50;79.50;;;;;;5113085;28;20035;-82
2022/08/12 02:17:22;;;;;;;1.92;1.40;;;17.40;79.80;;;;;;5112544;28;20538;-82
2022/08/12 02:19:58;;;;;;;4.43;1.65;;;17.40;79.90;;;;;;5118434;28;20633;-82
2022/08/12 02:22:37;;;;;;;2.58;1.20;;;17.40;80.20;;;;;;5112427;28;20676;-82
2022/08/12 02:25:28;;;;;;;2.78;1.92;;;17.30;80.20;;;;;;5113015;28;20028;-82
2022/08/12 02:27:55;;;;;;;2.15;1.50;;;17.30;80.70;;;;;;5117082;28;20045;-82
2022/08/12 02:30:24;;;;;;;2.03;1.27;;;17.30;80.80;;;;;;5122757;28;20023;-81
2022/08/12 02:32:52;;;;;;;2.33;1.65;;;17.30;81.20;;;;;;5122974;28;20091;-81
2022/08/12 02:35:20;;;;;;;2.55;1.42;;;17.30;81.50;;;;;;5121504;28;20514;-82
2022/08/12 02:37:48;;;;;;;2.92;1.42;;;17.20;81.70;;;;;;5123382;28;20030;-82
2022/08/12 02:40:16;;;;;;;2.25;1.45;;;17.20;82.40;;;;;;5123843;28;20049;-81
2022/08/12 02:42:52;;;;;;;2.00;1.17;;;17.20;82.80;;;;;;5121617;28;20035;-82
2022/08/12 02:45:23;;;;;;;2.42;1.40;;;17.20;83.30;;;;;;5114486;28;20469;-82
2022/08/12 02:47:53;;;;;;;2.80;1.75;;;17.10;84.00;;;;;;5110802;28;20030;-82
2022/08/12 02:50:21;;;;;;;3.17;1.90;;;17.10;84.10;;;;;;5110814;28;20031;-82
2022/08/12 02:52:51;;;;;;;1.90;1.40;;;17.10;84.40;;;;;;5111610;28;20031;-81
2022/08/12 02:55:22;;;;;;;3.25;1.20;;;17.10;85.30;;;;;;5112024;28;20485;-81
2022/08/12 02:57:49;;;;;;;2.85;1.40;;;17.00;85.60;;;;;;5111151;28;20030;-82
2022/08/12 03:00:17;;;;;;;5.00;1.63;;;17.00;86.00;;;;;;5111854;28;20024;-81
2022/08/12 03:02:45;;;;;;;2.20;1.63;;;17.00;85.50;;;;;;5111676;28;20054;-81
2022/08/12 03:05:14;;;;;;;3.40;1.42;;;17.00;85.70;;;;;;5111909;28;20200;-80
2022/08/12 03:07:48;;;;;;;4.20;1.73;;;17.00;85.90;;;;;;5109533;28;20027;-81
2022/08/12 03:10:17;;;;;;;3.30;1.40;;;16.90;86.60;;;;;;5111697;28;20031;-81
2022/08/12 03:12:44;;;;;;;2.40;1.33;;;16.90;86.80;;;;;;5111037;28;20027;-82
2022/08/12 03:15:15;;;;;;;2.20;1.35;;;16.90;87.00;;;;;;5111780;28;20034;-82
2022/08/12 03:17:48;;;;;;;3.42;1.90;;;16.90;87.40;;;;;;5111054;28;20794;-82
2022/08/12 03:20:17;;;;;;;2.03;1.15;;;16.80;87.70;;;;;;5111627;28;20030;-81
2022/08/12 03:22:44;;;;;;;1.63;1.02;;;16.80;87.90;;;;;;5111410;28;20123;-81
2022/08/12 03:25:17;;;;;;;5.30;1.35;;;16.80;88.40;;;;;;5111188;28;20028;-82
2022/08/12 03:27:48;;;;;;;5.10;1.67;;;16.80;88.60;;;;;;5110867;28;20059;-82
2022/08/12 03:30:16;;;;;;;2.45;1.40;;;16.70;89.10;;;;;;5112399;28;20490;-82
2022/08/12 03:32:46;;;;;;;3.03;2.25;;;16.70;89.60;;;;;;5110189;28;20596;-81
2022/08/12 03:35:16;;;;;;;2.50;1.38;;;16.70;89.90;;;;;;5111695;28;20020;-82
2022/08/12 03:37:44;;;;;;;2.10;1.35;;;16.60;90.00;;;;;;5110728;28;20123;-81
2022/08/12 03:41:32;;;;;;;3.50;1.63;;;16.60;90.40;;;;;;5111414;28;20065;-81
2022/08/12 04:02:16;;;;;;;3.17;1.75;;;16.50;90.60;;;;;;5110753;28;20038;-81
2022/08/12 04:04:44;;;;;;;2.97;1.33;;;16.50;90.70;;;;;;5109807;28;20544;-81
2022/08/12 04:07:10;;;;;;;6.80;1.70;;;16.50;91.00;;;;;;5113480;28;20020;-81
2022/08/12 04:09:39;;;;;;;5.60;1.67;;;16.50;91.10;;;;;;5110295;28;20034;-81
2022/08/12 04:14:50;;;;;;;5.10;1.67;;;16.40;90.90;;;;;;5110771;28;20104;-80
2022/08/12 04:17:17;;;;;;;3.90;1.35;;;16.40;90.90;;;;;;5110653;28;20070;-81
2022/08/12 04:19:46;;;;;;;6.05;2.38;;;16.40;91.10;;;;;;5110294;28;20027;-80
2022/08/12 04:22:11;;;;;;;3.80;1.85;;;16.40;91.30;;;;;;5110280;28;20040;-80
2022/08/12 04:24:39;;;;;;;2.78;1.52;;;16.40;91.30;;;;;;5110538;28;20456;-80
2022/08/12 04:27:08;;;;;;;2.45;1.50;;;16.40;91.20;;;;;;5110248;28;20030;-81
2022/08/12 04:29:34;;;;;;;5.55;1.80;;;16.40;91.50;;;;;;5110785;28;20027;-80
2022/08/12 04:32:00;;;;;;;3.83;1.80;;;16.40;92.00;;;;;;5110468;28;20031;-80
2022/08/12 04:34:27;;;;;;;4.88;1.85;;;16.50;91.70;;;;;;5111113;28;20031;-81
2022/08/12 04:36:52;;;;;;;2.47;1.40;;;16.50;91.50;;;;;;5110594;28;20510;-81
2022/08/12 04:39:20;;;;;;;2.70;1.50;;;16.50;91.40;;;;;;5110725;28;20099;-82
2022/08/12 04:41:46;;;;;;;6.25;2.28;;;16.50;91.40;;;;;;5110715;28;20051;-81
2022/08/12 04:44:11;;;;;;;3.53;1.90;;;16.50;91.30;;;;;;5110763;28;20074;-81
2022/08/12 04:46:37;;;;;;;2.53;1.58;;;16.50;91.40;;;;;;5108936;28;20764;-81
2022/08/12 04:49:04;;;;;;;3.20;1.63;;;16.50;91.50;;;;;;5110888;28;20019;-81
2022/08/12 04:51:31;;;;;;;3.15;1.52;;;16.50;91.50;;;;;;5110650;28;20367;-81
2022/08/12 04:53:56;;;;;;;3.13;1.73;;;16.50;91.50;;;;;;5112508;28;20039;-81
2022/08/12 04:56:22;;;;;;;3.15;1.48;;;16.60;91.60;;;;;;5111150;28;20393;-80
2022/08/12 04:58:48;;;;;;;2.22;1.40;;;16.60;91.90;;;;;;5110340;28;20080;-81
2022/08/12 05:01:13;;;;;;;3.53;1.48;;;16.60;91.90;;;;;;5110200;28;20040;-81
2022/08/12 05:03:39;;;;;;;5.90;1.50;;;16.60;91.70;;;;;;5108734;28;20028;-81
2022/08/12 05:06:06;;;;;;;3.88;1.55;;;16.70;91.70;;;;;;5109842;28;20024;-80
2022/08/12 05:08:33;;;;;;;4.57;1.95;;;16.70;91.70;;;;;;5110176;28;20051;-80
2022/08/12 05:11:00;;;;;;;3.15;1.80;;;16.70;91.50;;;;;;5109848;28;20034;-81
2022/08/12 05:13:29;;;;;;;8.35;1.65;;;16.80;91.60;;;;;;5110136;28;20474;-80
2022/08/12 05:15:55;;;;;;;6.30;2.38;;;16.80;91.60;;;;;;5109557;28;20066;-80
2022/08/12 05:18:20;;;;;;;5.22;1.65;;;16.80;91.50;;;;;;5109560;28;20473;-81
2022/08/12 05:20:47;;;;;;;4.00;1.77;;;16.80;91.60;;;;;;5110561;27;20065;-80
2022/08/12 05:23:18;;;;;;;4.18;1.63;;;16.90;91.60;;;;;;5114669;27;20035;-79
2022/08/12 05:25:46;;;;;;;2.42;1.60;;;16.90;91.60;;;;;;5112792;28;20027;-80
2022/08/12 05:28:12;;;;;;;7.20;1.60;;;17.00;91.60;;;;;;5114927;28;20023;-80
2022/08/12 05:30:41;;;;;;;4.40;1.70;;;17.10;91.60;;;;;;5113672;27;20517;-80
2022/08/12 05:33:06;;;;;;;4.60;2.10;;;17.10;91.60;;;;;;5112707;28;20032;-81
2022/08/12 05:35:38;;;;;;;4.50;1.95;;;17.20;91.50;;;;;;5113752;28;20114;-80
2022/08/12 05:41:00;;;;;;;4.32;1.38;;;17.30;91.40;;;;;;5113827;28;20388;-80
2022/08/12 05:43:26;;;;;;;4.07;2.50;;;17.40;91.50;;;;;;5112394;28;20020;-80
2022/08/12 05:45:52;;;;;;;4.10;1.95;;;17.40;91.30;;;;;;5122667;28;20398;-81
2022/08/12 05:48:17;;;;;;;3.53;1.88;;;17.50;91.40;;;;;;5124959;28;20031;-79
2022/08/12 05:50:44;;;;;;;3.97;1.70;;;17.60;91.40;;;;;;5123760;28;20043;-79
2022/08/12 05:53:10;;;;;;;4.53;1.88;;;17.70;91.40;;;;;;5124450;28;20588;-80
2022/08/12 05:55:36;;;;;;;3.30;1.75;;;17.70;91.30;;;;;;5122366;28;20080;-80
2022/08/12 05:58:03;;;;;;;5.53;1.60;;;17.80;91.50;;;;;;5122861;28;20385;-80
2022/08/12 06:00:30;;;;;;;6.97;2.38;;;17.90;91.20;;;;;;5122752;28;20020;-81
2022/08/12 06:03:00;;;;;;;5.57;2.47;;;17.90;90.70;;;;;;5120738;28;20104;-80
2022/08/12 06:05:27;;;;;;;6.03;1.65;;;18.10;90.70;;;;;;5123391;28;20046;-81
2022/08/12 06:07:56;;;;;;;7.57;1.48;;;18.10;90.80;;;;;;5116641;28;20042;-81
2022/08/12 06:10:22;;;;;;;4.28;1.67;;;18.20;90.50;;;;;;5114329;28;20027;-81
2022/08/12 06:12:48;;;;;;;5.07;2.22;;;18.30;90.50;;;;;;5114280;28;20023;-82
2022/08/12 06:15:15;;;;;;;4.50;1.83;;;18.50;90.40;;;;;;5113881;28;20039;-80
2022/08/12 06:17:41;;;;;;;4.53;1.70;;;18.60;90.30;;;;;;5112611;28;20028;-80
2022/08/12 06:20:12;;;;;;;2.17;1.05;;;18.70;90.50;;;;;;5112042;28;20612;-80
2022/08/12 06:22:38;;;;;;;2.05;1.40;;;18.80;89.80;;;;;;5112952;28;20040;-81
2022/08/12 06:25:06;;;;;;;3.78;1.73;;;18.90;87.60;;;;;;5113707;28;20044;-81
2022/08/12 06:27:32;;;;;;;3.78;1.42;;;19.00;85.70;;;;;;5112873;27;20032;-81
2022/08/12 06:29:57;;;;;;;3.63;1.50;;;19.10;85.30;;;;;;5115107;28;20020;-81
2022/08/12 06:32:23;;;;;;;3.80;1.23;;;19.20;84.90;;;;;;5113080;28;20110;-81
2022/08/12 06:34:48;;;;;;;5.20;1.42;;;19.40;84.10;;;;;;5115617;28;20028;-81
2022/08/12 06:37:16;;;;;;;7.72;1.63;;;19.60;83.60;;;;;;5114228;28;20056;-81
2022/08/12 06:39:42;;;;;;;3.75;1.48;;;19.70;82.90;;;;;;5115178;28;20027;-81
2022/08/12 06:44:52;;;;;;;2.45;1.40;;;20.10;82.20;;;;;;5115940;28;20030;-81
2022/08/12 06:47:18;;;;;;;2.10;1.30;;;20.20;81.20;;;;;;5114543;28;20023;-81
2022/08/12 06:49:43;;;;;;;3.65;1.67;;;20.40;80.90;;;;;;5112827;28;20020;-81
2022/08/12 06:52:09;;;;;;;2.28;1.20;;;20.50;80.40;;;;;;5113079;28;20084;-82
2022/08/12 06:54:34;;;;;;;4.47;1.08;;;20.70;80.30;;;;;;5111824;28;20035;-81
2022/08/12 06:57:01;;;;;;;5.18;0.95;;;20.90;79.70;;;;;;5114059;28;20034;-81
2022/08/12 06:59:26;;;;;;;1.50;1.00;;;21.00;78.40;;;;;;5113611;28;20194;-81
2022/08/12 07:01:53;;;;;;;2.00;1.08;;;21.20;78.50;;;;;;5111295;28;20144;-81
2022/08/12 07:04:20;;;;;;;3.65;1.27;;;21.30;77.20;;;;;;5112559;28;20433;-81
2022/08/12 07:06:45;;;;;;;6.45;1.20;;;21.40;77.30;;;;;;5113971;28;20024;-81
2022/08/12 07:09:13;;;;;;;4.75;1.17;;;21.50;76.40;;;;;;5112989;28;20072;-81
2022/08/12 07:11:42;;;;;;;5.72;0.90;;;21.60;75.80;;;;;;5111769;28;20028;-82
2022/08/12 07:14:08;;;;;;;2.53;0.80;;;21.80;75.60;;;;;;5112696;28;20024;-80
2022/08/12 07:16:51;;;;;;;3.58;0.90;;;21.90;74.30;;;;;;5111352;28;20106;-81
2022/08/12 07:19:17;;;;;;;1.25;0.88;;;22.00;75.30;;;;;;5112656;28;20032;-82
2022/08/12 07:21:44;;;;;;;3.13;1.15;;;22.20;74.30;;;;;;5111533;28;20030;-81
2022/08/12 07:24:09;;;;;;;3.35;0.95;;;22.40;74.70;;;;;;5112424;28;20043;-82
2022/08/12 07:26:40;;;;;;;1.98;1.02;;;22.40;73.30;;;;;;5111221;28;20032;-82
2022/08/12 07:29:08;;;;;;;3.72;1.02;;;22.50;72.90;;;;;;5112506;28;20031;-82
2022/08/12 07:31:34;;;;;;;2.45;0.80;;;22.50;72.40;;;;;;5111928;27;20031;-82
2022/08/12 07:34:00;;;;;;;3.50;1.60;;;22.60;74.40;;;;;;5112738;28;20215;-82
2022/08/12 07:36:26;;;;;;;2.33;1.17;;;22.80;73.40;;;;;;5111583;28;20091;-82
2022/08/12 07:38:52;;;;;;;2.38;1.00;;;22.90;73.60;;;;;;5112294;28;20015;-82
2022/08/12 07:41:20;;;;;;;2.72;0.77;;;23.00;72.50;;;;;;5111357;28;20075;-83
2022/08/12 07:43:52;;;;;;;2.45;0.98;;;23.10;70.30;;;;;;5111793;28;20043;-83
2022/08/12 07:46:21;;;;;;;2.88;0.80;;;23.20;71.20;;;;;;5111643;28;20521;-83
2022/08/12 07:48:50;;;;;;;8.20;0.65;;;23.30;69.60;;;;;;5112111;28;20034;-83
2022/08/12 07:51:17;;;;;;;4.28;0.63;;;23.50;71.40;;;;;;5111855;28;20038;-84
2022/08/12 07:53:42;;;;;;;3.33;0.85;;;23.70;70.70;;;;;;5111573;28;20024;-83
2022/08/12 07:56:09;;;;;;;2.45;0.65;;;23.90;69.40;;;;;;5110940;28;20102;-83
2022/08/12 07:58:38;;;;;;;3.88;0.80;;;24.00;69.70;;;;;;5111325;28;20020;-83
2022/08/12 08:01:05;;;;;;;1.77;0.65;;;24.20;69.10;;;;;;5110753;28;20027;-82
2022/08/12 08:03:30;;;;;;;2.05;0.50;;;24.40;67.00;;;;;;5111239;28;20754;-83
2022/08/12 08:05:57;;;;;;;1.27;0.70;;;24.50;67.00;;;;;;5109809;28;20031;-83
2022/08/12 08:08:25;;;;;;;1.58;0.50;;;24.70;66.20;;;;;;5112735;28;20122;-83
2022/08/12 08:12:52;;;;;;;3.30;0.57;;;24.90;63.10;;;;;;5112815;28;20560;-83
2022/08/12 08:13:39;;;;;;;3.80;0.60;;;25.00;62.40;;;;;;5124093;28;20031;-82
2022/08/12 08:16:06;;;;;;;2.67;0.50;;;25.10;61.20;;;;;;5116641;28;20016;-84
2022/08/12 08:18:31;;;;;;;0.60;0.32;;;25.30;61.30;;;;;;5110657;28;20035;-83
2022/08/12 08:20:57;;;;;;;0.75;0.47;;;25.40;62.20;;;;;;5110658;28;20038;-83
2022/08/12 08:24:13;;;;;;;1.60;0.50;;;25.60;61.60;;;;;;5110638;28;20028;-83
2022/08/12 08:26:09;;;;;;;0.70;0.40;;;25.70;60.30;;;;;;5109941;28;20035;-83
2022/08/12 08:28:35;;;;;;;0.60;0.40;;;25.80;60.70;;;;;;5110296;28;20035;-83
2022/08/12 08:31:00;;;;;;;0.80;0.45;;;25.90;60.40;;;;;;5110509;28;20521;-83
2022/08/12 08:33:26;;;;;;;1.90;0.30;;;26.00;60.30;;;;;;5109012;28;20051;-83
2022/08/12 08:35:52;;;;;;;2.83;0.50;;;26.20;59.20;;;;;;5110015;28;20126;-83
2022/08/12 08:38:17;;;;;;;0.55;0.30;;;26.30;59.40;;;;;;5110664;28;20063;-83
2022/08/12 08:43:31;;;;;;;2.08;0.45;;;26.50;57.40;;;;;;5110246;28;20402;-84
2022/08/12 08:45:59;;;;;;;1.75;0.70;;;26.60;60.00;;;;;;5109938;28;20043;-85
2022/08/12 08:48:25;;;;;;;1.40;0.50;;;26.60;59.00;;;;;;5110375;28;20047;-84
2022/08/12 08:50:50;;;;;;;3.05;0.50;;;26.70;59.60;;;;;;5109154;28;20069;-83
2022/08/12 08:53:17;;;;;;;3.00;0.75;;;26.70;59.50;;;;;;5109423;28;20139;-84
2022/08/12 08:55:43;;;;;;;1.00;0.40;;;26.80;58.40;;;;;;5109634;28;20030;-83
2022/08/12 08:58:09;;;;;;;4.32;0.60;;;26.90;57.70;;;;;;5113603;28;20389;-84
2022/08/12 09:00:38;;;;;;;0.88;0.40;;;27.00;58.70;;;;;;5114116;27;20020;-83
2022/08/12 09:03:05;;;;;;;1.45;0.50;;;27.10;59.10;;;;;;5114881;28;20030;-86
2022/08/12 09:05:31;;;;;;;4.45;0.50;;;27.10;58.80;;;;;;5113778;28;20032;-86
2022/08/12 09:07:59;;;;;;;1.17;0.43;;;27.10;58.10;;;;;;5114498;28;20088;-83
2022/08/12 09:10:25;;;;;;;1.27;0.55;;;27.10;57.10;;;;;;5113071;28;20027;-86
2022/08/12 09:15:35;;;;;;;1.00;0.60;;;27.20;56.60;;;;;;5113808;28;20030;-86
2022/08/12 09:18:01;;;;;;;0.77;0.55;;;27.10;56.30;;;;;;5113268;28;20023;-86
2022/08/12 09:20:29;;;;;;;2.88;0.52;;;27.20;59.50;;;;;;5112922;28;20038;-84
2022/08/12 09:22:56;;;;;;;1.05;0.63;;;27.20;57.20;;;;;;5112999;28;20032;-85
2022/08/12 09:25:25;;;;;;;8.30;0.70;;;27.30;59.50;;;;;;5113668;28;20039;-85
2022/08/12 09:27:51;;;;;;;1.70;0.52;;;27.50;58.00;;;;;;5113489;28;20015;-85
2022/08/12 09:30:17;;;;;;;1.00;0.47;;;27.60;57.10;;;;;;5113546;28;20470;-84
2022/08/12 09:32:49;;;;;;;1.00;0.40;;;27.70;57.90;;;;;;5112273;28;20034;-85
2022/08/12 09:35:22;;;;;;;;;;;27.80;57.80;;;;;;5112506;28;20062;-86
2022/08/12 09:37:51;;;;;;;;;;;28.00;58.10;;;;;;5112240;28;19915;-83
2022/08/12 09:40:19;;;;;;;0.57;0.40;;;28.10;57.00;;;;;;5112262;28;19915;-84
2022/08/12 09:45:31;;;;;;;1.33;0.50;;;28.10;59.00;;;;;;5113799;28;20420;-83
2022/08/12 09:48:05;;;;;;;1.30;0.60;;;28.20;55.80;;;;;;5112765;28;20028;-84
2022/08/12 09:50:31;;;;;;;2.17;0.50;;;28.30;55.50;;;;;;5113686;28;20054;-84
2022/08/12 09:53:06;;;;;;;0.55;0.50;;;28.40;57.40;;;;;;5113337;28;20477;-84
2022/08/12 09:55:31;;;;;;;1.88;0.47;;;28.40;53.60;;;;;;5111906;28;20035;-87
2022/08/12 09:57:58;;;;;;;0.98;0.50;;;28.50;54.40;;;;;;5112317;28;20024;-85
2022/08/12 10:00:24;;;;;;;1.73;0.50;;;28.50;56.30;;;;;;5113573;28;20020;-85
2022/08/12 10:03:20;;;;;;;3.05;0.57;;;28.50;54.90;;;;;;5112913;28;20068;-85
2022/08/12 10:05:47;;;;;;;1.83;0.40;;;28.60;55.40;;;;;;5100048;28;20473;-85
2022/08/12 10:08:15;;;;;;;0.55;0.40;;;28.80;55.10;;;;;;5113379;28;20496;-86
2022/08/12 10:13:43;;;;;;;1.10;0.40;;;29.00;54.60;;;;;;5114425;28;20062;-86
2022/08/12 10:16:11;;;;;;;;;;;29.10;56.00;;;;;;5112797;28;20028;-86
2022/08/12 10:18:40;;;;;;;3.08;0.47;;;29.10;53.90;;;;;;5113555;28;19919;-88
2022/08/12 10:21:08;;;;;;;2.35;0.60;;;29.20;56.60;;;;;;5114019;28;20089;-84
2022/08/12 10:23:34;;;;;;;3.10;0.60;;;29.40;55.10;;;;;;5114066;28;20020;-84
2022/08/12 10:31:27;;;;;;;0.50;0.40;;;29.60;52.80;;;;;;5112506;28;20041;-86
2022/08/12 10:33:53;;;;;;;3.80;0.52;;;29.50;52.60;;;;;;5113177;28;20083;-86
2022/08/12 10:36:19;;;;;;;1.73;0.60;;;29.50;53.40;;;;;;5112621;28;20024;-86
2022/08/12 10:38:46;;;;;;;0.73;0.32;;;29.60;53.30;;;;;;5111559;28;20031;-85
2022/08/12 10:43:55;;;;;;;0.63;0.30;;;29.70;53.00;;;;;;5113146;28;20046;-86
2022/08/12 10:46:22;;;;;;;2.00;0.30;;;29.90;52.00;;;;;;5112538;28;20031;-87
2022/08/12 10:48:50;;;;;;;2.15;0.30;;;29.90;50.40;;;;;;5112818;28;20169;-88
2022/08/12 10:51:17;;;;;;;7.30;0.50;;;29.80;52.70;;;;;;5112896;28;20462;-84
2022/08/12 10:53:44;;;;;;;2.35;0.45;;;30.00;51.80;;;;;;5113065;28;20567;-87
2022/08/12 10:56:12;;;;;;;0.85;0.40;;;30.00;52.40;;;;;;5112367;28;20059;-87
2022/08/12 10:58:38;;;;;;;1.67;0.40;;;30.00;55.10;;;;;;5113169;28;20024;-85
2022/08/12 11:01:05;;;;;;;0.60;0.30;;;30.00;51.70;;;;;;5113065;27;20118;-86
2022/08/12 11:03:36;;;;;;;1.05;0.40;;;30.00;54.20;;;;;;5112557;28;20032;-87
2022/08/12 11:06:05;;;;;;;4.55;0.60;;;30.00;50.50;;;;;;5111421;28;20038;-86
2022/08/12 11:08:33;;;;;;;5.22;0.60;;;30.00;54.70;;;;;;5111307;28;20482;-86
2022/08/12 11:10:59;;;;;;;0.93;0.38;;;30.10;51.70;;;;;;5111562;28;20044;-87
2022/08/12 11:13:24;;;;;;;0.40;0.20;;;30.20;52.80;;;;;;5111935;28;20546;-88
2022/08/12 11:15:51;;;;;;;4.15;0.65;;;30.30;51.00;;;;;;5111457;28;20047;-86
2022/08/12 11:18:17;;;;;;;2.50;0.40;;;30.50;50.80;;;;;;5113394;28;20032;-88
2022/08/12 11:20:42;;;;;;;0.57;0.30;;;30.60;50.30;;;;;;5112456;28;20043;-86
2022/08/12 11:23:09;;;;;;;2.42;0.38;;;30.80;52.20;;;;;;5113059;28;20019;-85
2022/08/12 11:25:34;;;;;;;4.35;0.32;;;30.90;50.50;;;;;;5112543;28;20016;-83
2022/08/12 11:28:00;;;;;;;0.82;0.35;;;31.00;51.20;;;;;;5114234;28;20019;-84
2022/08/12 11:30:25;;;;;;;0.50;0.30;;;31.00;51.30;;;;;;5120434;28;20564;-84
2022/08/12 11:32:51;;;;;;;5.40;0.57;;;31.00;50.40;;;;;;5124907;28;20039;-85
2022/08/12 11:35:16;;;;;;;0.80;0.40;;;31.10;50.50;;;;;;5118738;28;20074;-84
2022/08/12 11:37:42;;;;;;;2.88;0.40;;;31.30;47.80;;;;;;5112535;28;20035;-86
2022/08/12 11:40:07;;;;;;;2.33;0.30;;;31.20;48.40;;;;;;5114030;28;20028;-84
2022/08/12 11:42:36;;;;;;;0.40;0.20;;;31.20;51.10;;;;;;5110583;28;20054;-88
2022/08/12 11:45:03;;;;;;;0.50;0.40;;;31.20;49.70;;;;;;5110603;28;20038;-85
2022/08/12 11:47:28;;;;;;;2.15;0.40;;;31.20;50.60;;;;;;5110708;28;20030;-86
2022/08/12 11:49:54;;;;;;;1.75;0.35;;;31.30;47.70;;;;;;5112754;28;20027;-85
2022/08/12 11:52:19;;;;;;;1.10;0.35;;;31.30;47.20;;;;;;5111936;28;20038;-86
2022/08/12 11:54:45;;;;;;;8.98;1.13;;;31.40;47.80;;;;;;5112815;28;20765;-84
2022/08/12 11:57:10;;;;;;;1.35;0.70;;;31.50;48.30;;;;;;5111853;28;20036;-87
2022/08/12 11:59:36;;;;;;;1.88;0.30;;;31.50;47.70;;;;;;5112204;28;20193;-84
2022/08/12 12:02:01;;;;;;;0.88;0.50;;;31.60;49.60;;;;;;5111843;28;20027;-88
2022/08/12 12:04:27;;;;;;;3.22;0.50;;;31.60;47.00;;;;;;5112644;28;20067;-89
2022/08/12 12:06:52;;;;;;;2.63;0.55;;;31.40;47.40;;;;;;5110828;28;20092;-87
2022/08/12 12:09:18;;;;;;;0.95;0.35;;;31.20;47.50;;;;;;5112164;28;20016;-86
2022/08/12 12:11:44;;;;;;;0.50;0.30;;;30.90;48.40;;;;;;5110590;28;20023;-85
2022/08/12 12:14:09;;;;;;;0.95;0.30;;;30.70;48.00;;;;;;5110851;28;20385;-86
2022/08/12 12:16:36;;;;;;;3.80;0.40;;;30.50;48.70;;;;;;5111096;28;20141;-85
2022/08/12 12:19:01;;;;;;;1.00;0.45;;;30.40;48.00;;;;;;5110686;28;20038;-84
2022/08/12 12:21:27;;;;;;;0.60;0.30;;;30.40;48.30;;;;;;5109861;28;20036;-85
2022/08/12 12:23:53;;;;;;;2.17;0.40;;;30.50;47.30;;;;;;5111746;28;20063;-86
2022/08/12 12:26:19;;;;;;;1.17;0.40;;;30.60;49.50;;;;;;5109890;28;20477;-85
2022/08/12 12:28:44;;;;;;;4.65;0.43;;;30.70;48.80;;;;;;5112016;28;20477;-84
2022/08/12 12:31:10;;;;;;;1.48;0.40;;;30.90;50.90;;;;;;5114356;28;20027;-87
2022/08/12 12:33:35;;;;;;;0.73;0.35;;;31.00;50.50;;;;;;5114598;28;20418;-86
2022/08/12 12:36:01;;;;;;;3.60;0.50;;;31.20;49.00;;;;;;5115251;28;20028;-84
2022/08/12 12:38:26;;;;;;;2.13;0.50;;;31.40;46.60;;;;;;5115673;28;20032;-86
2022/08/12 12:40:52;;;;;;;3.80;0.50;;;31.50;47.90;;;;;;5115483;28;20439;-86
2022/08/12 12:43:18;;;;;;;1.83;0.47;;;31.60;48.20;;;;;;5114718;28;20032;-85
2022/08/12 12:45:44;;;;;;;0.70;0.40;;;31.60;49.00;;;;;;5115264;28;20130;-86
2022/08/12 12:48:18;;;;;;;1.23;0.40;;;31.70;48.10;;;;;;5116361;28;20023;-89
2022/08/12 12:51:14;;;;;;;1.38;0.60;;;31.70;47.60;;;;;;5115435;28;20020;-86
2022/08/12 12:53:37;;;;;;;1.20;0.50;;;31.60;46.90;;;;;;5115529;28;20015;-89
2022/08/12 12:56:03;;;;;;;1.02;0.50;;;31.50;46.30;;;;;;5114814;28;20030;-86
2022/08/12 12:58:29;;;;;;;2.50;0.40;;;31.20;46.70;;;;;;5115393;28;20020;-87
2022/08/12 13:01:00;;;;;;;0.77;0.30;;;30.90;46.70;;;;;;5114388;28;20020;-85
2022/08/12 13:03:26;;;;;;;4.40;0.50;;;30.70;48.50;;;;;;5113737;28;20023;-85
2022/08/12 13:05:51;;;;;;;2.47;0.93;;;30.60;49.60;;;;;;5113092;28;20056;-86
2022/08/12 13:08:24;;;;;;;1.95;0.40;;;30.50;48.90;;;;;;5114027;28;20024;-86
2022/08/12 13:10:50;;;;;;;1.23;0.40;;;30.50;48.10;;;;;;5113486;28;20027;-87
2022/08/12 13:13:18;;;;;;;2.53;0.30;;;30.50;51.60;;;;;;5113581;28;20438;-85
2022/08/12 13:15:45;;;;;;;2.63;0.55;;;30.70;49.30;;;;;;5118569;27;20027;-85
2022/08/12 13:18:10;;;;;;;1.15;0.60;;;30.70;48.30;;;;;;5122924;28;20031;-85
2022/08/12 13:20:36;;;;;;;2.40;0.60;;;30.60;49.50;;;;;;5120465;28;20038;-85
2022/08/12 13:23:01;;;;;;;3.03;0.60;;;30.60;48.40;;;;;;5118222;28;20031;-86
2022/08/12 13:25:27;;;;;;;2.60;0.40;;;30.40;48.50;;;;;;5117038;28;20426;-86
2022/08/12 13:27:52;;;;;;;5.43;0.40;;;30.30;48.90;;;;;;5119132;28;20031;-86
2022/08/12 13:30:21;;;;;;;0.75;0.47;;;30.00;48.90;;;;;;5116216;28;20028;-89
2022/08/12 13:32:58;;;;;;;0.73;0.40;;;29.90;48.60;;;;;;5116791;28;20038;-86
2022/08/12 13:35:25;;;;;;;1.73;0.52;;;29.80;48.90;;;;;;5116836;28;20088;-86
2022/08/12 13:37:54;;;;;;;1.38;0.57;;;29.40;49.50;;;;;;5115287;28;20031;-86
2022/08/12 13:40:20;;;;;;;1.05;0.60;;;29.30;51.20;;;;;;5118942;28;20106;-84
2022/08/12 13:42:48;;;;;;;3.13;0.60;;;29.20;49.80;;;;;;5115042;28;20093;-85
2022/08/12 13:45:15;;;;;;;0.77;0.38;;;29.30;49.70;;;;;;5118687;28;20069;-85
2022/08/12 13:47:54;;;;;;;5.22;0.40;;;29.30;50.20;;;;;;5117426;28;20031;-85
2022/08/12 13:50:31;;;;;;;1.67;0.57;;;29.30;50.50;;;;;;5116419;28;20026;-86
2022/08/12 13:53:05;;;;;;;1.70;0.68;;;29.30;50.90;;;;;;5121180;28;20436;-86
2022/08/12 13:55:31;;;;;;;3.28;0.60;;;29.30;50.80;;;;;;5119481;28;20027;-86
2022/08/12 13:57:58;;;;;;;1.63;0.47;;;29.40;51.70;;;;;;5118586;28;20100;-87
2022/08/12 14:00:25;;;;;;;1.27;0.40;;;29.70;49.80;;;;;;5120625;28;20051;-82
2022/08/12 14:02:51;;;;;;;3.10;0.40;;;30.10;50.70;;;;;;5121426;28;20027;-85
2022/08/12 14:05:17;;;;;;;2.58;0.60;;;30.50;49.60;;;;;;5121947;28;20055;-85
2022/08/12 14:07:53;;;;;;;1.30;0.45;;;30.90;48.90;;;;;;5124801;28;20032;-85
2022/08/12 14:10:35;;;;;;;1.10;0.68;;;31.30;48.40;;;;;;5125687;28;20019;-82
2022/08/12 14:13:05;;;;;;;;;;;31.30;48.60;;;;;;5127465;28;20057;-83
2022/08/12 14:15:37;;;;;;;2.13;0.70;;;31.40;48.60;;;;;;5125617;28;19946;-83
2022/08/12 14:18:13;;;;;;;1.25;0.73;;;31.40;50.00;;;;;;5126228;28;20074;-85
2022/08/12 14:20:40;;;;;;;1.60;0.90;;;31.40;48.60;;;;;;5124673;28;20062;-84
2022/08/12 14:23:07;;;;;;;1.30;0.45;;;31.30;48.00;;;;;;5122946;28;20034;-86
2022/08/12 14:25:32;;;;;;;2.00;0.50;;;31.30;48.40;;;;;;5118836;28;20032;-85
2022/08/12 14:28:14;;;;;;;3.10;0.75;;;31.20;49.00;;;;;;5120439;28;20587;-84
2022/08/12 14:30:45;;;;;;;0.75;0.50;;;31.20;48.60;;;;;;5122595;28;20039;-83
2022/08/12 14:33:16;;;;;;;2.65;0.93;;;31.20;47.80;;;;;;5116421;28;20440;-83
2022/08/12 14:35:42;;;;;;;1.07;0.50;;;31.10;48.60;;;;;;5118504;28;20030;-85
2022/08/12 14:38:42;;;;;;;1.23;0.52;;;31.00;48.20;;;;;;5119610;28;20031;-85
2022/08/12 14:41:18;;;;;;;0.75;0.40;;;31.00;48.80;;;;;;5071929;28;20432;-85